sensor_id;sensor_type;location;lat;lon;timestamp;pressure;altitude;pressure_sealevel;temperature;humidity
78309;BME280;67566;42.022;21.356;2023-08-30T00:00:11;97659.38;;;21.83;68.13
78309;BME280;67566;42.022;21.356;2023-08-30T00:02:37;97647.41;;;21.77;68.55
78309;BME280;67566;42.022;21.356;2023-08-30T00:05:05;97645.09;;;21.75;68.35
78309;BME280;67566;42.022;21.356;2023-08-30T00:07:31;97642.78;;;21.74;69.13
78309;BME280;67566;42.022;21.356;2023-08-30T00:09:58;97634.31;;;21.68;69.09
78309;BME280;67566;42.022;21.356;2023-08-30T00:12:24;97645.19;;;21.64;69.52
78309;BME280;67566;42.022;21.356;2023-08-30T00:14:50;97648.66;;;21.65;69.46
78309;BME280;67566;42.022;21.356;2023-08-30T00:17:16;97637.47;;;21.59;69.81
78309;BME280;67566;42.022;21.356;2023-08-30T00:19:41;97644.88;;;21.52;69.05
78309;BME280;67566;42.022;21.356;2023-08-30T00:22:07;97649.13;;;21.49;69.42
78309;BME280;67566;42.022;21.356;2023-08-30T00:24:33;97644.13;;;21.40;68.60
78309;BME280;67566;42.022;21.356;2023-08-30T00:26:58;97643.75;;;21.38;68.53
78309;BME280;67566;42.022;21.356;2023-08-30T00:29:24;97654.63;;;21.35;69.77
78309;BME280;67566;42.022;21.356;2023-08-30T00:31:49;97655.81;;;21.26;70.28
78309;BME280;67566;42.022;21.356;2023-08-30T00:34:15;97652.00;;;21.20;70.13
78309;BME280;67566;42.022;21.356;2023-08-30T00:36:40;97654.75;;;21.09;70.48
78309;BME280;67566;42.022;21.356;2023-08-30T00:39:06;97650.88;;;21.07;70.36
78309;BME280;67566;42.022;21.356;2023-08-30T00:41:31;97653.59;;;21.07;70.96
78309;BME280;67566;42.022;21.356;2023-08-30T00:43:57;97659.00;;;21.07;70.67
78309;BME280;67566;42.022;21.356;2023-08-30T00:46:22;97655.91;;;21.05;70.47
78309;BME280;67566;42.022;21.356;2023-08-30T00:48:48;97654.41;;;21.04;69.92
78309;BME280;67566;42.022;21.356;2023-08-30T00:51:13;97654.00;;;21.02;70.43
78309;BME280;67566;42.022;21.356;2023-08-30T00:53:39;97656.38;;;20.85;70.13
78309;BME280;67566;42.022;21.356;2023-08-30T00:56:05;97659.09;;;20.82;69.76
78309;BME280;67566;42.022;21.356;2023-08-30T00:58:30;97664.53;;;20.78;70.69
78309;BME280;67566;42.022;21.356;2023-08-30T01:00:56;97657.19;;;20.75;70.81
78309;BME280;67566;42.022;21.356;2023-08-30T01:03:22;97658.75;;;20.69;70.76
78309;BME280;67566;42.022;21.356;2023-08-30T01:05:48;97667.66;;;20.69;70.12
78309;BME280;67566;42.022;21.356;2023-08-30T01:08:14;97670.34;;;20.66;70.37
78309;BME280;67566;42.022;21.356;2023-08-30T01:13:09;97669.97;;;20.60;69.19
78309;BME280;67566;42.022;21.356;2023-08-30T01:15:35;97676.53;;;20.55;70.02
78309;BME280;67566;42.022;21.356;2023-08-30T01:18:04;97671.91;;;20.52;69.32
78309;BME280;67566;42.022;21.356;2023-08-30T01:20:35;97680.03;;;20.45;68.73
78309;BME280;67566;42.022;21.356;2023-08-30T01:23:06;97682.72;;;20.42;68.31
78309;BME280;67566;42.022;21.356;2023-08-30T01:28:16;97684.25;;;20.39;68.17
78309;BME280;67566;42.022;21.356;2023-08-30T01:30:45;97686.22;;;20.38;67.81
78309;BME280;67566;42.022;21.356;2023-08-30T01:33:13;97690.09;;;20.34;67.43
78309;BME280;67566;42.022;21.356;2023-08-30T01:35:40;97697.41;;;20.33;67.05
78309;BME280;67566;42.022;21.356;2023-08-30T01:38:07;97699.72;;;20.35;67.46
78309;BME280;67566;42.022;21.356;2023-08-30T01:40:38;97686.59;;;20.37;67.63
78309;BME280;67566;42.022;21.356;2023-08-30T01:43:06;97678.84;;;20.39;67.66
78309;BME280;67566;42.022;21.356;2023-08-30T01:45:38;97687.38;;;20.37;68.14
78309;BME280;67566;42.022;21.356;2023-08-30T01:48:04;97673.88;;;20.34;68.08
78309;BME280;67566;42.022;21.356;2023-08-30T01:50:32;97673.47;;;20.32;68.94
78309;BME280;67566;42.022;21.356;2023-08-30T01:52:59;97674.63;;;20.31;68.65
78309;BME280;67566;42.022;21.356;2023-08-30T01:55:26;97673.84;;;20.27;68.86
78309;BME280;67566;42.022;21.356;2023-08-30T01:57:53;97669.25;;;20.27;68.58
78309;BME280;67566;42.022;21.356;2023-08-30T02:00:19;97666.53;;;20.24;69.98
78309;BME280;67566;42.022;21.356;2023-08-30T02:02:45;97670.41;;;20.15;70.15
78309;BME280;67566;42.022;21.356;2023-08-30T02:05:10;97665.75;;;20.09;70.15
78309;BME280;67566;42.022;21.356;2023-08-30T02:07:54;97660.34;;;20.05;70.13
78309;BME280;67566;42.022;21.356;2023-08-30T02:10:24;97648.00;;;20.04;70.91
78309;BME280;67566;42.022;21.356;2023-08-30T02:12:53;97648.78;;;20.05;70.95
78309;BME280;67566;42.022;21.356;2023-08-30T02:15:20;97654.56;;;20.03;70.69
78309;BME280;67566;42.022;21.356;2023-08-30T02:17:47;97659.22;;;19.99;71.48
78309;BME280;67566;42.022;21.356;2023-08-30T02:20:13;97659.19;;;19.95;71.03
78309;BME280;67566;42.022;21.356;2023-08-30T02:22:38;97650.31;;;19.91;70.42
78309;BME280;67566;42.022;21.356;2023-08-30T02:25:04;97655.72;;;19.88;70.52
78309;BME280;67566;42.022;21.356;2023-08-30T02:27:31;97657.28;;;19.85;70.62
78309;BME280;67566;42.022;21.356;2023-08-30T02:29:56;97652.63;;;19.86;71.24
78309;BME280;67566;42.022;21.356;2023-08-30T02:32:22;97651.47;;;19.79;71.20
78309;BME280;67566;42.022;21.356;2023-08-30T02:34:52;97648.00;;;19.83;70.72
78309;BME280;67566;42.022;21.356;2023-08-30T02:37:18;97650.31;;;19.84;70.71
78309;BME280;67566;42.022;21.356;2023-08-30T02:39:44;97659.56;;;19.87;71.87
78309;BME280;67566;42.022;21.356;2023-08-30T02:42:10;97660.75;;;19.86;71.40
78309;BME280;67566;42.022;21.356;2023-08-30T02:44:35;97663.06;;;19.87;71.29
78309;BME280;67566;42.022;21.356;2023-08-30T02:47:01;97654.16;;;19.87;70.95
78309;BME280;67566;42.022;21.356;2023-08-30T02:49:26;97648.00;;;19.86;70.83
78309;BME280;67566;42.022;21.356;2023-08-30T02:51:52;97642.22;;;19.80;70.92
78309;BME280;67566;42.022;21.356;2023-08-30T02:54:17;97643.75;;;19.78;71.16
78309;BME280;67566;42.022;21.356;2023-08-30T02:56:44;97647.22;;;19.75;71.11
78309;BME280;67566;42.022;21.356;2023-08-30T02:59:10;97656.84;;;19.72;71.12
78309;BME280;67566;42.022;21.356;2023-08-30T03:01:36;97656.06;;;19.72;71.57
78309;BME280;67566;42.022;21.356;2023-08-30T03:04:01;97652.59;;;19.71;70.62
78309;BME280;67566;42.022;21.356;2023-08-30T03:06:28;97654.13;;;19.58;70.44
78309;BME280;67566;42.022;21.356;2023-08-30T03:08:54;97647.94;;;19.47;71.39
78309;BME280;67566;42.022;21.356;2023-08-30T03:11:19;97647.91;;;19.39;71.24
78309;BME280;67566;42.022;21.356;2023-08-30T03:13:45;97654.09;;;19.36;70.97
78309;BME280;67566;42.022;21.356;2023-08-30T03:16:14;97658.31;;;19.34;71.95
78309;BME280;67566;42.022;21.356;2023-08-30T03:18:40;97655.94;;;19.18;71.28
78309;BME280;67566;42.022;21.356;2023-08-30T03:21:07;97663.25;;;19.14;71.94
78309;BME280;67566;42.022;21.356;2023-08-30T03:23:33;97659.00;;;19.13;72.10
78309;BME280;67566;42.022;21.356;2023-08-30T03:25:59;97659.75;;;19.10;70.96
78309;BME280;67566;42.022;21.356;2023-08-30T03:28:25;97665.56;;;19.08;71.81
78309;BME280;67566;42.022;21.356;2023-08-30T03:30:52;97664.78;;;19.08;71.96
78309;BME280;67566;42.022;21.356;2023-08-30T03:33:18;97651.63;;;18.99;71.12
78309;BME280;67566;42.022;21.356;2023-08-30T03:35:43;97658.94;;;18.91;71.45
78309;BME280;67566;42.022;21.356;2023-08-30T03:38:09;97657.38;;;18.90;71.92
78309;BME280;67566;42.022;21.356;2023-08-30T03:40:34;97658.91;;;18.88;72.28
78309;BME280;67566;42.022;21.356;2023-08-30T03:43:00;97656.50;;;18.72;72.50
78309;BME280;67566;42.022;21.356;2023-08-30T03:45:25;97663.41;;;18.73;72.17
78309;BME280;67566;42.022;21.356;2023-08-30T03:47:51;97661.94;;;18.79;72.37
78309;BME280;67566;42.022;21.356;2023-08-30T03:50:17;97669.31;;;18.82;72.59
78309;BME280;67566;42.022;21.356;2023-08-30T03:52:42;97664.63;;;18.79;72.29
78309;BME280;67566;42.022;21.356;2023-08-30T03:55:08;97673.84;;;18.74;72.66
78309;BME280;67566;42.022;21.356;2023-08-30T03:57:33;97680.41;;;18.77;72.46
78309;BME280;67566;42.022;21.356;2023-08-30T03:59:59;97667.31;;;18.79;72.29
78309;BME280;67566;42.022;21.356;2023-08-30T04:02:25;97677.72;;;18.77;73.26
78309;BME280;67566;42.022;21.356;2023-08-30T04:04:50;97679.22;;;18.71;72.96
78309;BME280;67566;42.022;21.356;2023-08-30T04:07:16;97681.16;;;18.70;72.40
78309;BME280;67566;42.022;21.356;2023-08-30T04:09:41;97683.84;;;18.70;72.41
78309;BME280;67566;42.022;21.356;2023-08-30T04:12:07;97682.63;;;18.60;71.96
78309;BME280;67566;42.022;21.356;2023-08-30T04:14:32;97678.28;;;18.45;72.56
78309;BME280;67566;42.022;21.356;2023-08-30T04:16:58;97686.38;;;18.45;72.73
78309;BME280;67566;42.022;21.356;2023-08-30T04:19:23;97690.63;;;18.49;72.39
78309;BME280;67566;42.022;21.356;2023-08-30T04:21:49;97686.00;;;18.50;72.21
78309;BME280;67566;42.022;21.356;2023-08-30T04:24:15;97686.47;;;18.56;72.20
78309;BME280;67566;42.022;21.356;2023-08-30T04:26:41;97694.16;;;18.57;72.99
78309;BME280;67566;42.022;21.356;2023-08-30T04:29:06;97701.50;;;18.60;72.75
78309;BME280;67566;42.022;21.356;2023-08-30T04:31:32;97700.75;;;18.63;72.48
78309;BME280;67566;42.022;21.356;2023-08-30T04:33:57;97702.31;;;18.64;72.83
78309;BME280;67566;42.022;21.356;2023-08-30T04:36:23;97697.72;;;18.72;72.53
78309;BME280;67566;42.022;21.356;2023-08-30T04:38:48;97690.00;;;18.71;73.04
78309;BME280;67566;42.022;21.356;2023-08-30T04:41:14;97704.25;;;18.71;72.85
78309;BME280;67566;42.022;21.356;2023-08-30T04:43:39;97697.69;;;18.65;72.59
78309;BME280;67566;42.022;21.356;2023-08-30T04:46:21;97701.50;;;18.64;72.02
78309;BME280;67566;42.022;21.356;2023-08-30T04:48:49;97711.97;;;18.73;72.63
78309;BME280;67566;42.022;21.356;2023-08-30T04:51:21;97705.47;;;18.81;72.37
78309;BME280;67566;42.022;21.356;2023-08-30T04:53:46;97707.84;;;18.86;72.26
78309;BME280;67566;42.022;21.356;2023-08-30T04:56:15;97719.03;;;18.92;71.77
78309;BME280;67566;42.022;21.356;2023-08-30T04:58:43;97720.63;;;18.96;71.54
78309;BME280;67566;42.022;21.356;2023-08-30T05:01:09;97724.44;;;18.95;70.57
78309;BME280;67566;42.022;21.356;2023-08-30T05:03:34;97716.75;;;19.01;70.61
78309;BME280;67566;42.022;21.356;2023-08-30T05:06:00;97710.22;;;18.98;71.89
78309;BME280;67566;42.022;21.356;2023-08-30T05:08:25;97724.88;;;19.04;71.90
78309;BME280;67566;42.022;21.356;2023-08-30T05:10:54;97718.00;;;19.14;72.37
78309;BME280;67566;42.022;21.356;2023-08-30T05:13:19;97709.94;;;19.25;71.60
78309;BME280;67566;42.022;21.356;2023-08-30T05:15:45;97704.16;;;19.23;71.30
78309;BME280;67566;42.022;21.356;2023-08-30T05:18:11;97714.56;;;19.24;70.67
78309;BME280;67566;42.022;21.356;2023-08-30T05:20:36;97712.28;;;19.30;70.60
78309;BME280;67566;42.022;21.356;2023-08-30T05:23:01;97702.25;;;19.34;71.06
78309;BME280;67566;42.022;21.356;2023-08-30T05:25:28;97706.13;;;19.40;70.90
78309;BME280;67566;42.022;21.356;2023-08-30T05:27:53;97712.31;;;19.41;70.00
78309;BME280;67566;42.022;21.356;2023-08-30T05:30:19;97703.44;;;19.44;70.31
78309;BME280;67566;42.022;21.356;2023-08-30T05:32:44;97713.88;;;19.53;70.65
78309;BME280;67566;42.022;21.356;2023-08-30T05:35:10;97707.72;;;19.56;70.21
78309;BME280;67566;42.022;21.356;2023-08-30T05:37:35;97710.81;;;19.58;70.08
78309;BME280;67566;42.022;21.356;2023-08-30T05:40:01;97717.00;;;19.69;71.28
78309;BME280;67566;42.022;21.356;2023-08-30T05:42:26;97719.78;;;19.87;70.08
78309;BME280;67566;42.022;21.356;2023-08-30T05:44:53;97716.34;;;20.01;69.62
78309;BME280;67566;42.022;21.356;2023-08-30T05:47:19;97720.19;;;20.14;69.17
78309;BME280;67566;42.022;21.356;2023-08-30T05:49:45;97725.22;;;20.30;68.02
78309;BME280;67566;42.022;21.356;2023-08-30T05:52:10;97730.63;;;20.45;68.06
78309;BME280;67566;42.022;21.356;2023-08-30T05:54:36;97724.81;;;20.61;66.36
78309;BME280;67566;42.022;21.356;2023-08-30T05:57:01;97715.94;;;20.74;66.02
78309;BME280;67566;42.022;21.356;2023-08-30T05:59:27;97718.97;;;20.91;64.74
78309;BME280;67566;42.022;21.356;2023-08-30T06:01:53;97721.63;;;21.05;63.96
78309;BME280;67566;42.022;21.356;2023-08-30T06:04:18;97729.72;;;21.20;63.42
78309;BME280;67566;42.022;21.356;2023-08-30T06:06:44;97727.72;;;21.35;64.33
78309;BME280;67566;42.022;21.356;2023-08-30T06:09:10;97726.91;;;21.48;63.29
78309;BME280;67566;42.022;21.356;2023-08-30T06:11:37;97734.97;;;21.63;63.09
78309;BME280;67566;42.022;21.356;2023-08-30T06:14:02;97726.78;;;21.74;63.02
78309;BME280;67566;42.022;21.356;2023-08-30T06:16:28;97715.50;;;21.86;63.24
78309;BME280;67566;42.022;21.356;2023-08-30T06:18:54;97709.22;;;21.96;62.68
78309;BME280;67566;42.022;21.356;2023-08-30T06:21:19;97711.03;;;22.14;62.47
78309;BME280;67566;42.022;21.356;2023-08-30T06:23:45;97705.91;;;22.27;61.91
78309;BME280;67566;42.022;21.356;2023-08-30T06:26:10;97709.72;;;22.36;61.47
78309;BME280;67566;42.022;21.356;2023-08-30T06:28:36;97718.50;;;22.51;61.51
78309;BME280;67566;42.022;21.356;2023-08-30T06:31:01;97713.34;;;22.64;61.08
78309;BME280;67566;42.022;21.356;2023-08-30T06:33:27;97710.59;;;22.68;60.47
78309;BME280;67566;42.022;21.356;2023-08-30T06:35:52;97710.84;;;22.80;60.66
78309;BME280;67566;42.022;21.356;2023-08-30T06:38:19;97719.28;;;22.90;60.17
78309;BME280;67566;42.022;21.356;2023-08-30T06:40:45;97730.75;;;23.05;61.04
78309;BME280;67566;42.022;21.356;2023-08-30T06:43:11;97728.34;;;23.14;60.33
78309;BME280;67566;42.022;21.356;2023-08-30T06:45:38;97732.84;;;23.28;59.59
78309;BME280;67566;42.022;21.356;2023-08-30T06:48:05;97728.41;;;23.41;59.74
78309;BME280;67566;42.022;21.356;2023-08-30T06:50:31;97716.28;;;23.49;59.53
78309;BME280;67566;42.022;21.356;2023-08-30T06:52:56;97710.75;;;23.56;58.93
78309;BME280;67566;42.022;21.356;2023-08-30T06:55:22;97710.19;;;23.69;59.26
78309;BME280;67566;42.022;21.356;2023-08-30T06:57:48;97711.16;;;23.86;58.62
78309;BME280;67566;42.022;21.356;2023-08-30T07:00:17;97709.06;;;23.93;58.69
78309;BME280;67566;42.022;21.356;2023-08-30T07:02:43;97709.34;;;24.03;57.71
78309;BME280;67566;42.022;21.356;2023-08-30T07:05:11;97709.16;;;24.13;56.25
78309;BME280;67566;42.022;21.356;2023-08-30T07:07:37;97711.38;;;24.22;55.38
78309;BME280;67566;42.022;21.356;2023-08-30T07:10:02;97716.28;;;24.31;55.29
78309;BME280;67566;42.022;21.356;2023-08-30T07:12:28;97719.16;;;24.44;55.38
78309;BME280;67566;42.022;21.356;2023-08-30T07:14:53;97726.03;;;24.52;54.75
78309;BME280;67566;42.022;21.356;2023-08-30T07:17:19;97717.81;;;24.56;54.42
78309;BME280;67566;42.022;21.356;2023-08-30T07:19:45;97714.56;;;24.64;53.09
78309;BME280;67566;42.022;21.356;2023-08-30T07:22:10;97722.59;;;24.72;52.86
78309;BME280;67566;42.022;21.356;2023-08-30T07:24:36;97730.00;;;24.91;53.13
78309;BME280;67566;42.022;21.356;2023-08-30T07:27:02;97725.91;;;25.03;51.15
78309;BME280;67566;42.022;21.356;2023-08-30T07:29:28;97724.44;;;24.98;52.87
78309;BME280;67566;42.022;21.356;2023-08-30T07:31:53;97723.59;;;25.01;52.64
78309;BME280;67566;42.022;21.356;2023-08-30T07:34:20;97731.34;;;25.23;52.26
78309;BME280;67566;42.022;21.356;2023-08-30T07:36:45;97730.31;;;25.37;51.89
78309;BME280;67566;42.022;21.356;2023-08-30T07:39:11;97734.69;;;25.51;52.10
78309;BME280;67566;42.022;21.356;2023-08-30T07:41:37;97734.84;;;25.63;50.77
78309;BME280;67566;42.022;21.356;2023-08-30T07:44:03;97726.00;;;25.76;50.53
78309;BME280;67566;42.022;21.356;2023-08-30T07:46:28;97733.81;;;25.94;50.88
78309;BME280;67566;42.022;21.356;2023-08-30T07:48:54;97746.69;;;26.10;50.27
78309;BME280;67566;42.022;21.356;2023-08-30T07:51:20;97741.31;;;26.23;49.89
78309;BME280;67566;42.022;21.356;2023-08-30T07:53:46;97737.47;;;26.36;49.63
78309;BME280;67566;42.022;21.356;2023-08-30T07:56:11;97738.56;;;26.55;49.84
78309;BME280;67566;42.022;21.356;2023-08-30T07:58:37;97745.66;;;26.53;50.45
78309;BME280;67566;42.022;21.356;2023-08-30T08:01:02;97744.63;;;26.47;49.91
78309;BME280;67566;42.022;21.356;2023-08-30T08:03:28;97741.47;;;26.48;49.20
78309;BME280;67566;42.022;21.356;2023-08-30T08:05:54;97736.25;;;26.70;48.61
78309;BME280;67566;42.022;21.356;2023-08-30T08:08:19;97734.31;;;27.00;48.88
78309;BME280;67566;42.022;21.356;2023-08-30T08:10:45;97739.28;;;27.18;47.30
78309;BME280;67566;42.022;21.356;2023-08-30T08:13:10;97726.56;;;27.41;46.40
78309;BME280;67566;42.022;21.356;2023-08-30T08:15:38;97730.16;;;27.38;45.35
78309;BME280;67566;42.022;21.356;2023-08-30T08:18:03;97731.81;;;27.48;45.01
78309;BME280;67566;42.022;21.356;2023-08-30T08:20:29;97729.44;;;27.63;42.43
78309;BME280;67566;42.022;21.356;2023-08-30T08:22:56;97731.72;;;27.77;43.53
78309;BME280;67566;42.022;21.356;2023-08-30T08:25:21;97729.66;;;27.68;43.47
78309;BME280;67566;42.022;21.356;2023-08-30T08:27:49;97727.13;;;27.61;44.28
78309;BME280;67566;42.022;21.356;2023-08-30T08:30:16;97732.34;;;27.43;45.48
78309;BME280;67566;42.022;21.356;2023-08-30T08:32:41;97729.28;;;27.28;45.88
78309;BME280;67566;42.022;21.356;2023-08-30T08:35:07;97731.25;;;26.98;46.55
78309;BME280;67566;42.022;21.356;2023-08-30T08:37:33;97728.25;;;26.92;47.10
78309;BME280;67566;42.022;21.356;2023-08-30T08:39:58;97728.88;;;26.84;46.80
78309;BME280;67566;42.022;21.356;2023-08-30T08:42:24;97733.44;;;26.74;46.54
78309;BME280;67566;42.022;21.356;2023-08-30T08:44:54;97736.00;;;26.65;46.30
78309;BME280;67566;42.022;21.356;2023-08-30T08:47:20;97734.81;;;26.66;46.24
78309;BME280;67566;42.022;21.356;2023-08-30T08:49:50;97730.38;;;26.72;46.26
78309;BME280;67566;42.022;21.356;2023-08-30T08:52:16;97729.41;;;26.79;46.39
78309;BME280;67566;42.022;21.356;2023-08-30T08:54:42;97739.19;;;26.92;45.76
78309;BME280;67566;42.022;21.356;2023-08-30T08:57:09;97729.31;;;27.11;45.40
78309;BME280;67566;42.022;21.356;2023-08-30T08:59:34;97729.50;;;27.34;44.00
78309;BME280;67566;42.022;21.356;2023-08-30T09:02:00;97734.09;;;27.37;44.25
78309;BME280;67566;42.022;21.356;2023-08-30T09:04:30;97731.81;;;27.48;43.73
78309;BME280;67566;42.022;21.356;2023-08-30T09:06:55;97732.59;;;27.61;43.11
78309;BME280;67566;42.022;21.356;2023-08-30T09:09:21;97725.91;;;27.62;43.83
78309;BME280;67566;42.022;21.356;2023-08-30T09:11:48;97730.41;;;27.56;42.98
78309;BME280;67566;42.022;21.356;2023-08-30T09:14:13;97721.09;;;27.54;42.37
78309;BME280;67566;42.022;21.356;2023-08-30T09:16:39;97719.16;;;27.54;41.90
78309;BME280;67566;42.022;21.356;2023-08-30T09:19:05;97709.50;;;27.62;42.36
78309;BME280;67566;42.022;21.356;2023-08-30T09:21:30;97711.72;;;27.80;39.56
78309;BME280;67566;42.022;21.356;2023-08-30T09:24:05;97707.06;;;28.29;39.20
78309;BME280;67566;42.022;21.356;2023-08-30T09:26:32;97704.06;;;28.49;38.25
78309;BME280;67566;42.022;21.356;2023-08-30T09:29:05;97699.59;;;28.42;36.94
78309;BME280;67566;42.022;21.356;2023-08-30T09:31:38;97699.28;;;28.75;36.75
78309;BME280;67566;42.022;21.356;2023-08-30T09:34:05;97702.47;;;28.73;37.62
78309;BME280;67566;42.022;21.356;2023-08-30T09:36:41;97697.75;;;28.74;38.26
78309;BME280;67566;42.022;21.356;2023-08-30T09:39:11;97697.63;;;28.77;37.78
78309;BME280;67566;42.022;21.356;2023-08-30T09:41:44;97697.56;;;28.68;38.18
78309;BME280;67566;42.022;21.356;2023-08-30T09:44:18;97695.72;;;28.52;39.58
78309;BME280;67566;42.022;21.356;2023-08-30T09:46:45;97696.41;;;28.43;39.82
78309;BME280;67566;42.022;21.356;2023-08-30T09:49:12;97703.25;;;28.26;39.90
78309;BME280;67566;42.022;21.356;2023-08-30T09:51:39;97702.09;;;28.01;40.57
78309;BME280;67566;42.022;21.356;2023-08-30T09:54:15;97695.53;;;27.73;40.40
78309;BME280;67566;42.022;21.356;2023-08-30T09:56:43;97700.00;;;27.54;40.26
78309;BME280;67566;42.022;21.356;2023-08-30T09:59:11;97692.75;;;27.35;41.34
78309;BME280;67566;42.022;21.356;2023-08-30T10:01:37;97701.22;;;27.24;39.74
78309;BME280;67566;42.022;21.356;2023-08-30T10:04:04;97707.66;;;27.17;40.39
78309;BME280;67566;42.022;21.356;2023-08-30T10:06:30;97705.13;;;27.10;40.50
78309;BME280;67566;42.022;21.356;2023-08-30T10:08:56;97704.69;;;26.99;41.39
78309;BME280;67566;42.022;21.356;2023-08-30T10:11:24;97709.13;;;26.92;40.89
78309;BME280;67566;42.022;21.356;2023-08-30T10:13:51;97708.47;;;26.88;40.69
78309;BME280;67566;42.022;21.356;2023-08-30T10:16:20;97709.31;;;26.85;41.14
78309;BME280;67566;42.022;21.356;2023-08-30T10:18:51;97712.91;;;26.82;41.24
78309;BME280;67566;42.022;21.356;2023-08-30T10:21:19;97702.09;;;26.79;41.46
78309;BME280;67566;42.022;21.356;2023-08-30T10:23:49;97714.31;;;26.74;41.95
78309;BME280;67566;42.022;21.356;2023-08-30T10:26:17;97717.16;;;26.70;42.07
78309;BME280;67566;42.022;21.356;2023-08-30T10:28:43;97709.81;;;26.67;42.45
78309;BME280;67566;42.022;21.356;2023-08-30T10:31:10;97712.63;;;26.64;42.08
78309;BME280;67566;42.022;21.356;2023-08-30T10:33:54;97709.47;;;26.65;42.04
78309;BME280;67566;42.022;21.356;2023-08-30T10:36:24;97717.25;;;26.67;42.63
78309;BME280;67566;42.022;21.356;2023-08-30T10:38:52;97715.28;;;26.67;42.00
78309;BME280;67566;42.022;21.356;2023-08-30T10:41:22;97711.34;;;26.68;42.29
78309;BME280;67566;42.022;21.356;2023-08-30T10:43:57;97711.09;;;26.63;41.80
78309;BME280;67566;42.022;21.356;2023-08-30T10:46:30;97713.47;;;26.61;41.61
78309;BME280;67566;42.022;21.356;2023-08-30T10:48:56;97720.56;;;26.58;41.59
78309;BME280;67566;42.022;21.356;2023-08-30T10:51:45;97718.78;;;26.51;41.56
78309;BME280;67566;42.022;21.356;2023-08-30T10:54:19;97724.84;;;26.43;42.13
78309;BME280;67566;42.022;21.356;2023-08-30T10:57:03;97726.63;;;26.33;41.50
78309;BME280;67566;42.022;21.356;2023-08-30T10:59:29;97724.84;;;26.26;41.65
78309;BME280;67566;42.022;21.356;2023-08-30T11:01:55;97727.31;;;26.21;41.41
78309;BME280;67566;42.022;21.356;2023-08-30T11:04:22;97723.59;;;26.14;41.69
78309;BME280;67566;42.022;21.356;2023-08-30T11:06:49;97727.91;;;26.12;41.68
78309;BME280;67566;42.022;21.356;2023-08-30T11:09:18;97720.94;;;26.11;41.73
78309;BME280;67566;42.022;21.356;2023-08-30T11:11:48;97724.78;;;26.13;41.82
78309;BME280;67566;42.022;21.356;2023-08-30T11:14:14;97732.94;;;26.13;42.22
78309;BME280;67566;42.022;21.356;2023-08-30T11:16:40;97733.28;;;26.15;42.29
78309;BME280;67566;42.022;21.356;2023-08-30T11:19:07;97732.28;;;26.09;42.47
78309;BME280;67566;42.022;21.356;2023-08-30T11:21:36;97731.31;;;25.99;42.76
78309;BME280;67566;42.022;21.356;2023-08-30T11:24:03;97736.03;;;25.99;42.76
78309;BME280;67566;42.022;21.356;2023-08-30T11:26:29;97744.63;;;25.97;42.84
78309;BME280;67566;42.022;21.356;2023-08-30T11:28:55;97743.06;;;25.96;43.66
78309;BME280;67566;42.022;21.356;2023-08-30T11:31:25;97740.22;;;25.84;43.64
78309;BME280;67566;42.022;21.356;2023-08-30T11:33:55;97732.28;;;25.73;43.20
78309;BME280;67566;42.022;21.356;2023-08-30T11:36:30;97728.31;;;25.77;42.99
78309;BME280;67566;42.022;21.356;2023-08-30T11:38:57;97728.47;;;25.87;43.61
78309;BME280;67566;42.022;21.356;2023-08-30T11:41:24;97721.38;;;26.09;43.65
78309;BME280;67566;42.022;21.356;2023-08-30T11:43:51;97719.03;;;26.24;43.20
78309;BME280;67566;42.022;21.356;2023-08-30T11:46:17;97705.41;;;26.41;43.28
78309;BME280;67566;42.022;21.356;2023-08-30T11:48:44;97714.22;;;26.61;43.29
78309;BME280;67566;42.022;21.356;2023-08-30T11:51:13;97701.81;;;26.89;42.52
78309;BME280;67566;42.022;21.356;2023-08-30T11:53:39;97702.28;;;27.01;42.23
78309;BME280;67566;42.022;21.356;2023-08-30T11:56:05;97693.09;;;27.37;41.37
78309;BME280;67566;42.022;21.356;2023-08-30T11:58:32;97696.25;;;27.61;40.54
78309;BME280;67566;42.022;21.356;2023-08-30T12:00:59;97688.19;;;27.96;40.66
78309;BME280;67566;42.022;21.356;2023-08-30T12:03:29;97694.09;;;28.07;39.48
78309;BME280;67566;42.022;21.356;2023-08-30T12:05:55;97686.47;;;28.37;39.08
78309;BME280;67566;42.022;21.356;2023-08-30T12:10:50;97662.84;;;28.87;36.54
78309;BME280;67566;42.022;21.356;2023-08-30T12:13:29;97662.53;;;28.85;36.33
78309;BME280;67566;42.022;21.356;2023-08-30T12:15:57;97668.47;;;28.84;37.51
78309;BME280;67566;42.022;21.356;2023-08-30T12:18:32;97661.91;;;29.12;37.03
78309;BME280;67566;42.022;21.356;2023-08-30T12:20:59;97662.41;;;29.42;36.35
78309;BME280;67566;42.022;21.356;2023-08-30T12:23:27;97658.84;;;29.73;35.91
78309;BME280;67566;42.022;21.356;2023-08-30T12:26:11;97661.16;;;29.74;35.04
78309;BME280;67566;42.022;21.356;2023-08-30T12:28:41;97656.03;;;29.54;36.44
78309;BME280;67566;42.022;21.356;2023-08-30T12:31:09;97660.00;;;29.85;36.34
78309;BME280;67566;42.022;21.356;2023-08-30T12:33:36;97655.75;;;30.02;36.05
78309;BME280;67566;42.022;21.356;2023-08-30T12:36:02;97648.59;;;29.55;36.68
78309;BME280;67566;42.022;21.356;2023-08-30T12:38:29;97649.38;;;29.02;37.01
78309;BME280;67566;42.022;21.356;2023-08-30T12:40:55;97652.06;;;28.71;37.51
78309;BME280;67566;42.022;21.356;2023-08-30T12:43:21;97649.63;;;28.51;37.89
78309;BME280;67566;42.022;21.356;2023-08-30T12:45:48;97643.50;;;28.47;37.90
78309;BME280;67566;42.022;21.356;2023-08-30T12:48:15;97650.38;;;28.64;37.77
78309;BME280;67566;42.022;21.356;2023-08-30T12:50:42;97644.97;;;28.60;38.16
78309;BME280;67566;42.022;21.356;2023-08-30T12:53:08;97642.06;;;28.77;37.12
78309;BME280;67566;42.022;21.356;2023-08-30T12:55:34;97645.50;;;28.68;37.17